Time;durP1;ratioP1;P1;durP2;ratioP2;P2;SDS_P1;SDS_P2;PMS_P1;PMS_P2;Temp;Humidity;BMP_temperature;BMP_pressure;BME280_temperature;BME280_humidity;BME280_pressure;Samples;Min_cycle;Max_cycle;Signal;HPM_P1;HPM_P2
2021/07/01 00:00:24;;;;;;;1.37;0.60;;;15.70;99.90;;;;;;5070564;28;20188;-47
2021/07/01 00:02:49;;;;;;;1.40;1.00;;;15.80;99.90;;;;;;5070313;28;20794;-49
2021/07/01 00:05:16;;;;;;;0.80;0.73;;;15.80;99.90;;;;;;5070325;28;20168;-49
2021/07/01 00:07:43;;;;;;;0.83;0.80;;;15.80;99.90;;;;;;5067060;28;20258;-49
2021/07/01 00:10:10;;;;;;;1.20;0.70;;;16.00;99.90;;;;;;5050015;28;20403;-52
2021/07/01 00:12:37;;;;;;;0.80;0.60;;;16.00;99.90;;;;;;5050526;28;20415;-48
2021/07/01 00:15:08;;;;;;;1.23;0.80;;;16.00;99.90;;;;;;5050662;28;20442;-51
2021/07/01 00:17:34;;;;;;;1.40;1.00;;;16.10;99.90;;;;;;5050123;28;20408;-49
2021/07/01 00:20:04;;;;;;;1.00;0.80;;;16.20;99.90;;;;;;5050386;28;20396;-49
2021/07/01 00:22:30;;;;;;;0.90;0.80;;;16.00;99.90;;;;;;5049801;28;20424;-48
2021/07/01 00:24:55;;;;;;;2.13;0.83;;;16.00;99.90;;;;;;5052604;28;20427;-49
2021/07/01 00:27:21;;;;;;;2.37;0.80;;;16.00;99.90;;;;;;5061156;28;20172;-50
2021/07/01 00:29:47;;;;;;;1.73;0.80;;;16.10;99.90;;;;;;5070583;28;20649;-48
2021/07/01 00:32:12;;;;;;;0.83;0.80;;;16.10;99.90;;;;;;5069713;28;20191;-48
2021/07/01 00:34:38;;;;;;;1.97;0.80;;;15.90;99.90;;;;;;5069642;28;20245;-48
2021/07/01 00:37:04;;;;;;;1.07;0.77;;;15.90;99.90;;;;;;5069935;28;20250;-48
2021/07/01 00:39:29;;;;;;;1.43;0.90;;;15.90;99.90;;;;;;5052476;28;20175;-48
2021/07/01 00:41:55;;;;;;;1.10;0.80;;;15.90;99.90;;;;;;5048318;28;20180;-51
2021/07/01 00:44:20;;;;;;;1.33;0.70;;;15.90;99.90;;;;;;5049584;28;20174;-49
2021/07/01 00:46:46;;;;;;;1.07;0.60;;;15.80;99.90;;;;;;5049556;28;20164;-47
2021/07/01 00:49:12;;;;;;;0.93;0.83;;;15.90;99.90;;;;;;5049488;28;20176;-48
2021/07/01 00:51:38;;;;;;;1.30;0.80;;;15.90;99.90;;;;;;5049761;28;20174;-52
2021/07/01 00:54:04;;;;;;;2.20;0.90;;;15.90;99.90;;;;;;5048852;28;20602;-48
2021/07/01 00:56:36;;;;;;;1.53;0.90;;;15.90;99.90;;;;;;5049457;28;20494;-50
2021/07/01 00:59:03;;;;;;;2.10;0.80;;;16.00;99.90;;;;;;5049305;28;20159;-49
2021/07/01 01:01:28;;;;;;;1.20;0.73;;;16.10;99.90;;;;;;5049266;28;20412;-50
2021/07/01 01:03:54;;;;;;;1.63;0.70;;;15.90;99.90;;;;;;5049176;28;20452;-49
2021/07/01 01:06:20;;;;;;;0.80;0.70;;;15.80;99.90;;;;;;5039056;28;20168;-48
2021/07/01 01:08:45;;;;;;;1.03;0.93;;;16.00;99.90;;;;;;5035450;28;20176;-50
2021/07/01 01:11:11;;;;;;;2.50;0.60;;;15.90;99.90;;;;;;5035854;28;20167;-48
2021/07/01 01:13:37;;;;;;;0.90;0.70;;;16.00;99.90;;;;;;5035986;28;20289;-48
2021/07/01 01:16:04;;;;;;;1.33;0.70;;;15.90;99.90;;;;;;5036499;28;20177;-48
2021/07/01 01:18:30;;;;;;;0.97;0.87;;;15.70;99.90;;;;;;5035936;28;20167;-49
2021/07/01 01:20:58;;;;;;;0.80;0.70;;;15.70;99.90;;;;;;5035918;28;20425;-50
2021/07/01 01:23:25;;;;;;;3.07;0.93;;;15.80;99.90;;;;;;5034994;28;20421;-54
2021/07/01 01:25:56;;;;;;;3.13;0.80;;;15.90;99.90;;;;;;5035884;28;20413;-50
2021/07/01 01:28:21;;;;;;;0.80;0.67;;;16.00;99.90;;;;;;5035893;28;20414;-47
2021/07/01 01:30:47;;;;;;;1.30;0.70;;;16.00;99.90;;;;;;5035470;28;20397;-49
2021/07/01 01:33:13;;;;;;;0.90;0.80;;;16.10;99.90;;;;;;5035234;28;20559;-49
2021/07/01 01:35:40;;;;;;;0.80;0.50;;;16.20;99.90;;;;;;5035683;28;20165;-48
2021/07/01 01:38:11;;;;;;;1.50;0.80;;;16.20;99.90;;;;;;5035253;28;20644;-48
2021/07/01 01:40:38;;;;;;;1.70;0.87;;;16.10;99.90;;;;;;5035585;28;20872;-51
2021/07/01 01:43:04;;;;;;;1.10;0.50;;;16.10;99.90;;;;;;5035119;28;20423;-48
2021/07/01 01:45:29;;;;;;;0.77;0.60;;;16.00;99.90;;;;;;5035458;28;20423;-51
2021/07/01 01:47:55;;;;;;;0.87;0.60;;;16.00;99.90;;;;;;5034623;28;20584;-50
2021/07/01 01:50:22;;;;;;;0.83;0.60;;;16.10;99.90;;;;;;5035395;28;20198;-50
2021/07/01 01:52:48;;;;;;;0.80;0.60;;;16.10;99.90;;;;;;5035014;28;20536;-49
2021/07/01 01:55:15;;;;;;;0.70;0.50;;;16.00;99.90;;;;;;5041797;28;21059;-47
2021/07/01 01:57:46;;;;;;;0.70;0.53;;;16.00;99.90;;;;;;5034580;28;20459;-51
2021/07/01 02:00:14;;;;;;;0.90;0.70;;;16.10;99.90;;;;;;5034874;28;20385;-48
2021/07/01 02:02:40;;;;;;;0.70;0.60;;;16.10;99.90;;;;;;5034705;28;20425;-49
2021/07/01 02:05:07;;;;;;;1.10;0.63;;;16.20;99.90;;;;;;5034970;28;20892;-50
2021/07/01 02:07:36;;;;;;;0.90;0.70;;;16.10;99.90;;;;;;5034650;28;20415;-49
2021/07/01 02:10:04;;;;;;;0.80;0.60;;;16.10;99.90;;;;;;5034768;28;20408;-54
2021/07/01 02:12:30;;;;;;;1.63;0.50;;;16.00;99.90;;;;;;5034426;28;20489;-51
2021/07/01 02:14:57;;;;;;;1.23;0.67;;;16.00;99.90;;;;;;5035112;28;20444;-51
2021/07/01 02:17:23;;;;;;;0.70;0.60;;;16.10;99.90;;;;;;5032347;28;20175;-50
2021/07/01 02:19:48;;;;;;;1.10;0.70;;;16.20;99.90;;;;;;5034800;28;20405;-51
2021/07/01 02:22:14;;;;;;;0.80;0.60;;;16.10;99.90;;;;;;5034176;28;20202;-52
2021/07/01 02:24:41;;;;;;;0.80;0.60;;;15.90;99.90;;;;;;5034475;28;20168;-48
2021/07/01 02:27:07;;;;;;;1.50;0.80;;;16.00;99.90;;;;;;5034493;28;20411;-50
2021/07/01 02:29:33;;;;;;;0.70;0.60;;;15.70;99.90;;;;;;5034667;28;20459;-49
2021/07/01 02:31:59;;;;;;;1.30;0.70;;;15.80;99.90;;;;;;5035002;28;20429;-52
2021/07/01 02:34:24;;;;;;;0.90;0.80;;;15.90;99.90;;;;;;5050772;28;20197;-49
2021/07/01 02:36:50;;;;;;;0.80;0.70;;;15.70;99.90;;;;;;5052112;28;20166;-49
2021/07/01 02:39:15;;;;;;;1.77;0.73;;;15.70;99.90;;;;;;5052677;28;20214;-49
2021/07/01 02:41:41;;;;;;;0.70;0.60;;;15.70;99.90;;;;;;5053780;28;20165;-50
2021/07/01 02:44:07;;;;;;;0.90;0.50;;;15.80;99.90;;;;;;5053261;28;20223;-50
2021/07/01 02:46:32;;;;;;;0.70;0.60;;;15.80;99.90;;;;;;5044990;28;20252;-49
2021/07/01 02:48:58;;;;;;;1.63;0.80;;;15.90;99.90;;;;;;5033671;28;20166;-49
2021/07/01 02:51:24;;;;;;;0.70;0.50;;;16.00;99.90;;;;;;5034039;28;20294;-52
2021/07/01 02:53:49;;;;;;;1.57;0.63;;;16.00;99.90;;;;;;5033338;28;20571;-49
2021/07/01 02:56:15;;;;;;;0.97;0.60;;;16.10;99.90;;;;;;5033550;28;20569;-48
2021/07/01 02:58:41;;;;;;;2.00;0.67;;;16.10;99.90;;;;;;5035127;28;20176;-49
2021/07/01 03:01:56;;;;;;;0.93;0.67;;;16.10;99.90;;;;;;5045040;28;20404;-50
2021/07/01 06:52:13;;;;;;;2.20;2.00;;;16.30;99.90;;;;;;5407392;23;20474;-60
2021/07/01 06:54:40;;;;;;;2.43;2.20;;;16.50;99.90;;;;;;4951467;29;20571;-64
2021/07/01 06:57:06;;;;;;;2.13;1.93;;;16.50;99.90;;;;;;4952431;28;21086;-64
2021/07/01 06:59:31;;;;;;;2.77;1.80;;;16.50;99.90;;;;;;4954816;28;20435;-63
2021/07/01 07:01:58;;;;;;;2.13;1.60;;;16.40;99.90;;;;;;4955162;28;20438;-60
2021/07/01 07:04:33;;;;;;;2.20;1.60;;;16.50;99.90;;;;;;4954911;28;20211;-64
2021/07/01 07:07:08;;;;;;;1.73;1.63;;;16.60;99.90;;;;;;4952603;29;21026;-54
2021/07/01 07:09:34;;;;;;;4.23;1.70;;;16.70;99.90;;;;;;4955640;28;20448;-55
2021/07/01 07:12:00;;;;;;;1.83;1.73;;;16.80;99.90;;;;;;4954576;29;20421;-56
2021/07/01 07:14:25;;;;;;;6.30;1.93;;;17.00;99.90;;;;;;4954275;28;20633;-55
2021/07/01 07:16:56;;;;;;;2.60;1.47;;;17.30;99.90;;;;;;4955691;29;20194;-55
2021/07/01 07:19:23;;;;;;;3.00;1.97;;;17.20;99.90;;;;;;4955522;28;20239;-57
2021/07/01 07:21:51;;;;;;;1.57;1.40;;;17.20;99.90;;;;;;4955432;28;20396;-56
2021/07/01 07:24:20;;;;;;;3.40;2.17;;;17.10;99.90;;;;;;4955618;28;20839;-57
2021/07/01 07:26:55;;;;;;;2.67;2.47;;;17.40;99.90;;;;;;4954882;28;20428;-57
2021/07/01 07:29:22;;;;;;;2.83;1.70;;;17.50;99.90;;;;;;4955691;28;20499;-56
2021/07/01 07:31:49;;;;;;;2.80;2.10;;;17.60;99.90;;;;;;4955355;28;20412;-57
2021/07/01 07:34:16;;;;;;;2.00;1.80;;;17.70;99.90;;;;;;4955255;28;20825;-55
2021/07/01 07:36:42;;;;;;;1.50;1.30;;;18.00;99.90;;;;;;4955735;29;21079;-54
2021/07/01 07:39:07;;;;;;;2.10;1.90;;;18.30;99.90;;;;;;4956279;29;20473;-56
2021/07/01 07:41:33;;;;;;;2.70;2.00;;;18.50;99.90;;;;;;4949404;28;20557;-55
2021/07/01 07:43:59;;;;;;;2.57;1.73;;;18.50;99.90;;;;;;4936475;29;20171;-56
2021/07/01 07:46:26;;;;;;;2.10;1.90;;;18.30;99.90;;;;;;4936706;29;20201;-56
2021/07/01 07:48:52;;;;;;;3.00;2.33;;;18.40;99.90;;;;;;4936685;29;20265;-57
2021/07/01 07:51:23;;;;;;;3.97;1.80;;;18.40;99.90;;;;;;4936282;29;20477;-56
2021/07/01 07:53:52;;;;;;;2.27;1.90;;;18.10;99.90;;;;;;4954596;28;20501;-56
2021/07/01 07:56:27;;;;;;;1.80;1.70;;;18.30;99.90;;;;;;4954921;28;20461;-55
2021/07/01 07:58:55;;;;;;;2.50;2.30;;;18.60;99.90;;;;;;4955488;28;20459;-55
2021/07/01 08:01:22;;;;;;;2.10;1.90;;;18.70;99.90;;;;;;4942441;28;20422;-56
2021/07/01 08:03:52;;;;;;;2.90;2.20;;;18.60;99.90;;;;;;4936360;29;20418;-54
2021/07/01 08:06:23;;;;;;;2.33;1.77;;;18.30;99.90;;;;;;4935938;29;20473;-53
2021/07/01 08:08:52;;;;;;;2.23;1.90;;;18.40;99.90;;;;;;4935891;29;20426;-55
2021/07/01 08:11:19;;;;;;;2.30;2.10;;;18.20;99.90;;;;;;4937142;29;20410;-51
2021/07/01 08:13:46;;;;;;;1.73;1.63;;;18.10;99.90;;;;;;4938168;29;20461;-54
2021/07/01 08:16:12;;;;;;;2.77;2.43;;;18.30;99.90;;;;;;4938991;29;20923;-52
2021/07/01 08:18:40;;;;;;;2.33;2.13;;;18.10;99.90;;;;;;4940662;29;20899;-56
2021/07/01 08:21:13;;;;;;;2.27;1.80;;;18.10;99.90;;;;;;4939593;29;20894;-55
2021/07/01 08:23:41;;;;;;;2.60;2.40;;;17.80;99.90;;;;;;4938931;29;20407;-56
2021/07/01 08:26:07;;;;;;;2.93;2.73;;;17.90;99.90;;;;;;4942519;29;20529;-54
2021/07/01 08:28:33;;;;;;;2.40;2.20;;;18.20;99.90;;;;;;4944979;28;20430;-56
2021/07/01 08:31:15;;;;;;;3.20;2.57;;;18.40;99.90;;;;;;4939636;29;20774;-56
2021/07/01 08:33:46;;;;;;;2.63;1.83;;;18.40;99.90;;;;;;4939296;29;20378;-57
2021/07/01 08:36:15;;;;;;;2.07;1.87;;;18.50;99.90;;;;;;4939254;29;20430;-54
2021/07/01 08:38:43;;;;;;;3.23;2.47;;;18.50;99.90;;;;;;4939212;29;20555;-56
2021/07/01 08:41:23;;;;;;;3.00;2.17;;;18.60;99.90;;;;;;4939420;29;20424;-56
2021/07/01 08:43:52;;;;;;;2.80;2.60;;;19.00;99.90;;;;;;4939437;29;20394;-57
2021/07/01 08:46:26;;;;;;;3.00;2.80;;;19.20;99.90;;;;;;4939358;29;20991;-57
2021/07/01 08:49:08;;;;;;;4.20;2.47;;;19.10;99.90;;;;;;4939004;29;20398;-55
2021/07/01 08:51:39;;;;;;;2.57;2.10;;;18.80;99.90;;;;;;4939463;29;20398;-55
2021/07/01 08:54:25;;;;;;;3.70;2.40;;;18.70;99.90;;;;;;4939221;29;21442;-55
2021/07/01 08:56:53;;;;;;;2.40;2.20;;;18.70;99.90;;;;;;4939190;29;20959;-56
2021/07/01 08:59:21;;;;;;;2.50;2.30;;;18.60;99.90;;;;;;4938916;29;20806;-56
2021/07/01 09:01:54;;;;;;;2.40;2.20;;;18.70;99.90;;;;;;4939003;29;20406;-56
2021/07/01 09:04:22;;;;;;;3.23;2.90;;;18.60;99.90;;;;;;4938909;29;20406;-55
2021/07/01 09:06:56;;;;;;;3.40;2.43;;;18.60;99.90;;;;;;4938907;29;20453;-57
2021/07/01 09:09:29;;;;;;;3.10;2.40;;;18.80;99.90;;;;;;4939261;29;20871;-56
2021/07/01 09:11:55;;;;;;;2.03;1.93;;;18.80;99.90;;;;;;4938976;29;20399;-54
2021/07/01 09:14:24;;;;;;;2.30;2.10;;;18.90;99.90;;;;;;4938972;29;20454;-56
2021/07/01 09:16:51;;;;;;;2.70;2.50;;;19.00;99.90;;;;;;4938310;29;20463;-56
2021/07/01 09:19:17;;;;;;;2.67;2.40;;;18.80;99.90;;;;;;4938357;29;20414;-57
2021/07/01 09:21:45;;;;;;;2.60;2.40;;;19.00;99.90;;;;;;4938757;29;20505;-53
2021/07/01 09:24:13;;;;;;;2.30;2.10;;;19.10;99.90;;;;;;4938717;29;20795;-55
2021/07/01 09:26:41;;;;;;;2.80;2.40;;;19.00;99.90;;;;;;4938023;29;20434;-55
2021/07/01 09:29:08;;;;;;;2.60;2.40;;;19.10;99.90;;;;;;4938256;29;20422;-55
2021/07/01 09:31:35;;;;;;;4.40;3.00;;;19.30;99.90;;;;;;4937925;29;20411;-54
2021/07/01 09:34:01;;;;;;;2.70;2.50;;;18.90;99.90;;;;;;4938238;29;20853;-57
2021/07/01 09:36:27;;;;;;;2.87;2.40;;;19.20;99.90;;;;;;4938424;29;20427;-56
2021/07/01 09:38:54;;;;;;;2.93;2.63;;;19.20;99.90;;;;;;4938093;29;20461;-55
2021/07/01 09:41:22;;;;;;;2.93;2.00;;;19.20;99.90;;;;;;4938034;29;20694;-55
2021/07/01 09:43:48;;;;;;;2.33;2.13;;;19.60;99.90;;;;;;4938299;29;20410;-55
2021/07/01 09:46:18;;;;;;;3.67;2.80;;;20.00;99.90;;;;;;4937764;29;20434;-57
2021/07/01 09:48:46;;;;;;;3.70;2.83;;;20.20;99.90;;;;;;4937836;29;20179;-58
2021/07/01 09:51:13;;;;;;;2.50;2.30;;;20.40;99.90;;;;;;4938061;29;20940;-57
2021/07/01 09:53:40;;;;;;;2.50;2.30;;;20.40;99.90;;;;;;4956858;28;20409;-53
2021/07/01 09:56:12;;;;;;;2.77;2.43;;;20.50;99.90;;;;;;4956926;28;20434;-57
2021/07/01 09:58:49;;;;;;;2.07;1.93;;;19.80;99.90;;;;;;4946012;28;20423;-57
2021/07/01 10:01:26;;;;;;;2.67;2.47;;;19.80;99.90;;;;;;4937426;29;20382;-56
2021/07/01 10:03:53;;;;;;;3.10;2.53;;;19.60;99.90;;;;;;4937712;29;20783;-56
2021/07/01 10:06:19;;;;;;;5.60;3.07;;;19.80;99.90;;;;;;4937662;29;20889;-57
2021/07/01 10:08:45;;;;;;;3.10;2.13;;;19.80;99.90;;;;;;4938097;29;20423;-57
2021/07/01 10:11:11;;;;;;;2.30;2.07;;;19.70;99.90;;;;;;4937255;29;20429;-57
2021/07/01 10:13:37;;;;;;;2.63;2.03;;;19.50;99.90;;;;;;4937852;29;20195;-56
2021/07/01 10:16:03;;;;;;;3.80;2.57;;;19.20;99.90;;;;;;4937589;29;20198;-57
2021/07/01 10:18:41;;;;;;;3.93;2.60;;;19.20;99.90;;;;;;4936030;29;20415;-57
2021/07/01 10:21:14;;;;;;;2.47;2.27;;;19.00;99.90;;;;;;4937802;29;20391;-57
2021/07/01 10:23:40;;;;;;;2.83;2.63;;;18.80;99.90;;;;;;4937686;29;20469;-57
2021/07/01 10:26:16;;;;;;;2.30;2.17;;;18.80;99.90;;;;;;4937034;29;20982;-57
2021/07/01 10:28:55;;;;;;;2.43;1.93;;;19.00;99.90;;;;;;4937970;29;20155;-56
2021/07/01 10:31:21;;;;;;;2.73;2.53;;;19.20;99.90;;;;;;4937454;29;20398;-57
2021/07/01 10:33:47;;;;;;;2.53;2.33;;;19.20;99.90;;;;;;4937504;29;20468;-57
2021/07/01 10:36:20;;;;;;;1.80;1.60;;;19.10;99.90;;;;;;4937420;29;20190;-56
2021/07/01 10:38:48;;;;;;;3.10;1.80;;;18.90;99.90;;;;;;4937289;29;20623;-57
2021/07/01 10:41:36;;;;;;;2.20;2.00;;;18.70;99.90;;;;;;4937314;29;20446;-55
2021/07/01 10:44:03;;;;;;;1.90;1.70;;;18.70;99.90;;;;;;4937503;29;20389;-56
2021/07/01 10:46:39;;;;;;;2.47;2.27;;;18.50;99.90;;;;;;4936878;29;20434;-56
2021/07/01 10:49:05;;;;;;;2.27;2.00;;;18.70;99.90;;;;;;4937439;29;20414;-57
2021/07/01 10:51:31;;;;;;;1.90;1.73;;;18.90;99.90;;;;;;4937326;29;20414;-57
2021/07/01 10:54:15;;;;;;;3.90;2.10;;;18.90;99.90;;;;;;4937072;29;20871;-57
2021/07/01 10:56:43;;;;;;;2.23;2.03;;;18.70;99.90;;;;;;4937020;29;20431;-56
2021/07/01 10:59:13;;;;;;;2.67;2.47;;;18.40;99.90;;;;;;4936896;29;20434;-57
2021/07/01 11:01:41;;;;;;;2.07;1.97;;;18.20;99.90;;;;;;4936682;29;20911;-57
2021/07/01 11:04:14;;;;;;;2.93;1.90;;;17.80;99.90;;;;;;4937117;29;20543;-56
2021/07/01 11:07:04;;;;;;;1.70;1.60;;;17.80;99.90;;;;;;4936846;29;20532;-57
2021/07/01 11:09:43;;;;;;;2.50;2.30;;;17.80;99.90;;;;;;4936922;29;20892;-55
2021/07/01 11:12:11;;;;;;;2.50;1.90;;;17.80;99.90;;;;;;4936819;29;20780;-55
2021/07/01 11:14:44;;;;;;;1.90;1.70;;;17.50;99.90;;;;;;4936726;29;20445;-57
2021/07/01 11:17:10;;;;;;;2.10;1.90;;;17.50;99.90;;;;;;4936757;29;20397;-57
2021/07/01 11:19:44;;;;;;;2.13;1.93;;;17.50;99.90;;;;;;4941823;29;20421;-57
2021/07/01 11:22:11;;;;;;;2.57;1.87;;;17.60;99.90;;;;;;4937502;29;20162;-56
2021/07/01 11:24:42;;;;;;;3.10;2.37;;;17.60;99.90;;;;;;4938220;29;20461;-56
2021/07/01 11:27:09;;;;;;;2.07;1.60;;;17.50;99.90;;;;;;4938389;29;20829;-53
2021/07/01 11:29:42;;;;;;;2.03;1.90;;;17.70;99.90;;;;;;4936934;29;20410;-53
2021/07/01 11:32:16;;;;;;;2.53;2.07;;;17.80;99.90;;;;;;4937167;29;20433;-53
2021/07/01 11:34:44;;;;;;;2.10;2.00;;;17.90;99.90;;;;;;4936998;29;20449;-56
2021/07/01 11:37:12;;;;;;;4.33;2.50;;;18.00;99.90;;;;;;4936830;29;20453;-55
2021/07/01 11:39:38;;;;;;;3.00;2.80;;;17.90;99.90;;;;;;4936511;29;20406;-57
2021/07/01 11:42:04;;;;;;;2.67;2.47;;;18.00;99.90;;;;;;4936169;29;20417;-56
2021/07/01 11:44:35;;;;;;;2.73;2.53;;;17.80;99.90;;;;;;4939982;29;20409;-55
2021/07/01 11:47:03;;;;;;;2.90;2.67;;;17.70;99.90;;;;;;4936559;29;20427;-56
2021/07/01 11:49:33;;;;;;;2.80;2.60;;;17.70;99.90;;;;;;4936329;29;20410;-56
2021/07/01 11:52:02;;;;;;;2.10;1.90;;;17.80;99.90;;;;;;4936053;29;20437;-52
2021/07/01 11:54:28;;;;;;;2.50;2.30;;;18.00;99.90;;;;;;4936999;29;20457;-57
2021/07/01 11:56:59;;;;;;;2.53;2.33;;;17.90;99.90;;;;;;4935849;29;20834;-52
2021/07/01 11:59:30;;;;;;;3.10;2.80;;;18.10;99.90;;;;;;4936249;29;20426;-56
2021/07/01 12:01:58;;;;;;;2.10;1.90;;;18.30;99.90;;;;;;4936104;29;20395;-55
2021/07/01 12:04:31;;;;;;;3.93;2.97;;;18.30;99.90;;;;;;4936037;29;20970;-57
2021/07/01 12:07:17;;;;;;;2.80;2.53;;;18.70;99.90;;;;;;4935744;29;20943;-54
2021/07/01 12:09:43;;;;;;;2.37;2.13;;;19.30;99.90;;;;;;4935969;29;20431;-52
2021/07/01 12:12:14;;;;;;;2.90;2.70;;;19.60;99.90;;;;;;4936495;29;20453;-56
2021/07/01 12:14:49;;;;;;;3.50;2.60;;;20.10;99.90;;;;;;4936279;29;20509;-56
2021/07/01 12:17:52;;;;;;;2.90;2.70;;;20.50;99.90;;;;;;4936131;29;20811;-56
2021/07/01 12:20:37;;;;;;;3.13;2.30;;;20.70;99.90;;;;;;4936077;29;20441;-56
2021/07/01 12:23:24;;;;;;;5.60;2.43;;;20.50;99.90;;;;;;4935366;29;20439;-57
2021/07/01 12:25:59;;;;;;;3.30;3.00;;;20.40;99.90;;;;;;4935431;29;20427;-55
2021/07/01 12:28:29;;;;;;;2.60;2.40;;;20.10;99.90;;;;;;4935885;29;20394;-56
2021/07/01 12:31:02;;;;;;;2.90;2.50;;;20.30;99.90;;;;;;4935626;29;20404;-56
2021/07/01 12:33:37;;;;;;;3.17;2.90;;;20.40;99.90;;;;;;4935947;29;20398;-56
2021/07/01 12:36:15;;;;;;;2.80;2.40;;;20.70;99.90;;;;;;4935523;29;20436;-57
2021/07/01 12:39:02;;;;;;;2.90;2.70;;;20.90;99.90;;;;;;4935228;29;20406;-55
2021/07/01 12:41:28;;;;;;;3.10;2.73;;;21.40;99.90;;;;;;4935326;29;20411;-52
2021/07/01 12:43:54;;;;;;;2.97;2.73;;;22.10;99.90;;;;;;4935507;29;20926;-57
2021/07/01 12:46:48;;;;;;;3.17;2.87;;;22.20;99.90;;;;;;4935774;29;21029;-55
2021/07/01 12:49:23;;;;;;;3.10;2.67;;;21.70;99.90;;;;;;4935953;29;20494;-56
2021/07/01 12:52:01;;;;;;;2.93;2.70;;;21.20;99.90;;;;;;4935815;29;20382;-51
2021/07/01 12:54:29;;;;;;;3.90;2.77;;;20.60;99.90;;;;;;4935453;29;20823;-54
2021/07/01 12:56:54;;;;;;;5.07;4.13;;;20.60;99.90;;;;;;4935412;29;20434;-57
2021/07/01 12:59:21;;;;;;;3.33;3.00;;;20.40;99.90;;;;;;4935691;29;20493;-58
2021/07/01 13:01:48;;;;;;;3.00;2.70;;;20.20;99.90;;;;;;4936803;29;20177;-57
2021/07/01 13:04:20;;;;;;;4.53;4.13;;;20.20;99.90;;;;;;4939220;29;20411;-58
2021/07/01 13:06:46;;;;;;;4.93;3.77;;;19.80;99.90;;;;;;4972994;23;20990;-62
2021/07/01 13:09:27;;;;;;;3.80;3.50;;;19.70;99.90;;;;;;4957702;29;20493;-62
2021/07/01 13:11:53;;;;;;;4.07;3.67;;;19.90;99.90;;;;;;4957787;29;20545;-61
2021/07/01 13:14:22;;;;;;;4.37;3.63;;;20.10;99.90;;;;;;4956302;29;20461;-62
2021/07/01 13:17:06;;;;;;;4.20;3.80;;;20.50;99.90;;;;;;4957726;28;20241;-61
2021/07/01 13:19:32;;;;;;;4.63;3.87;;;20.90;99.90;;;;;;4957573;29;20389;-62
2021/07/01 13:22:03;;;;;;;3.67;3.37;;;21.30;99.90;;;;;;4957116;29;20445;-62
2021/07/01 13:24:28;;;;;;;3.83;3.53;;;20.90;99.90;;;;;;4957681;29;20887;-61
2021/07/01 13:26:56;;;;;;;6.93;3.87;;;20.70;99.90;;;;;;4957319;28;20432;-61
2021/07/01 13:29:38;;;;;;;4.10;3.70;;;20.20;99.90;;;;;;4957183;29;20169;-61
2021/07/01 13:32:06;;;;;;;5.50;4.50;;;20.20;99.90;;;;;;4957405;29;20433;-61
2021/07/01 13:34:32;;;;;;;6.60;4.40;;;20.20;99.90;;;;;;4956911;29;20455;-61
2021/07/01 13:37:30;;;;;;;6.47;5.10;;;20.10;99.90;;;;;;4937543;29;20529;-61
2021/07/01 13:39:57;;;;;;;5.40;4.90;;;20.00;99.90;;;;;;4917870;29;20215;-61
2021/07/01 13:42:28;;;;;;;5.40;4.50;;;19.80;99.90;;;;;;4918940;29;20475;-61
2021/07/01 13:45:07;;;;;;;5.07;3.50;;;20.00;99.90;;;;;;4932169;29;20841;-61
2021/07/01 13:47:45;;;;;;;6.93;4.90;;;20.50;99.90;;;;;;4925236;28;20795;-61
2021/07/01 13:50:34;;;;;;;4.90;4.50;;;21.30;99.90;;;;;;4923381;29;20423;-62
2021/07/01 13:53:03;;;;;;;6.57;4.93;;;21.40;99.90;;;;;;4931420;29;20431;-57
2021/07/01 13:55:40;;;;;;;5.50;5.00;;;21.30;99.90;;;;;;4918648;29;20459;-62
2021/07/01 13:58:09;;;;;;;5.33;4.80;;;20.70;99.90;;;;;;4918822;29;20475;-62
2021/07/01 14:00:37;;;;;;;6.10;5.60;;;20.40;99.90;;;;;;4918747;29;20400;-61
2021/07/01 14:03:15;;;;;;;5.00;4.23;;;19.90;99.90;;;;;;4933303;29;20422;-61
2021/07/01 14:05:46;;;;;;;4.60;4.20;;;19.60;99.90;;;;;;4918463;29;20453;-61
2021/07/01 14:08:40;;;;;;;4.63;4.23;;;19.20;99.90;;;;;;4918507;29;20783;-61
2021/07/01 14:11:19;;;;;;;4.63;4.03;;;18.90;99.90;;;;;;4924705;29;20505;-61
2021/07/01 14:13:47;;;;;;;3.60;3.30;;;18.90;99.90;;;;;;4957198;28;20790;-63
2021/07/01 14:16:18;;;;;;;5.70;4.47;;;19.00;99.90;;;;;;4956471;28;20425;-62
2021/07/01 14:18:56;;;;;;;4.60;4.17;;;18.90;99.90;;;;;;4956740;29;20390;-61
2021/07/01 14:21:36;;;;;;;4.33;3.93;;;18.70;99.90;;;;;;4956260;29;20405;-61
2021/07/01 14:24:22;;;;;;;5.87;4.50;;;18.80;99.90;;;;;;4955134;29;20432;-62
2021/07/01 14:26:56;;;;;;;5.20;3.77;;;18.90;99.90;;;;;;4956428;28;20426;-61
2021/07/01 14:29:24;;;;;;;5.30;4.80;;;18.90;99.90;;;;;;4954708;29;20970;-61
2021/07/01 14:31:50;;;;;;;4.73;4.30;;;19.00;99.90;;;;;;4955090;29;20473;-62
2021/07/01 14:34:16;;;;;;;5.60;4.40;;;19.00;99.90;;;;;;4940836;29;20549;-62
2021/07/01 14:36:47;;;;;;;3.77;3.47;;;18.90;99.90;;;;;;4925301;29;20944;-61
2021/07/01 14:39:13;;;;;;;4.70;3.53;;;18.70;99.90;;;;;;4945202;29;20668;-61
2021/07/01 14:41:44;;;;;;;8.13;3.70;;;18.70;99.90;;;;;;4926680;29;20417;-62
2021/07/01 14:44:12;;;;;;;5.10;4.10;;;18.50;99.90;;;;;;4937163;29;20390;-62
2021/07/01 14:46:47;;;;;;;4.63;3.70;;;18.50;99.90;;;;;;4936967;29;20445;-62
2021/07/01 14:49:43;;;;;;;6.27;4.10;;;18.60;99.90;;;;;;4936908;29;20477;-62
2021/07/01 14:52:12;;;;;;;3.87;3.47;;;18.70;99.90;;;;;;4919749;29;20480;-62
2021/07/01 14:54:45;;;;;;;5.20;4.50;;;18.60;99.90;;;;;;4936448;29;20848;-62
2021/07/01 14:57:11;;;;;;;4.00;3.60;;;18.70;99.90;;;;;;4939403;29;20464;-62
2021/07/01 14:59:40;;;;;;;4.50;4.07;;;18.90;99.90;;;;;;4956201;29;20406;-62
2021/07/01 15:02:06;;;;;;;4.60;3.90;;;19.00;99.90;;;;;;4956170;29;20643;-59
2021/07/01 15:04:41;;;;;;;4.60;4.20;;;19.20;99.90;;;;;;4954583;29;20460;-62
2021/07/01 15:07:17;;;;;;;3.93;3.40;;;19.30;99.90;;;;;;4955272;28;20924;-62
2021/07/01 15:09:56;;;;;;;4.77;4.27;;;19.10;99.90;;;;;;4955974;29;20389;-62
2021/07/01 15:12:24;;;;;;;4.07;3.77;;;19.10;99.90;;;;;;4955269;29;20955;-62
2021/07/01 15:14:57;;;;;;;3.80;3.40;;;19.00;99.90;;;;;;4956096;29;20453;-62
2021/07/01 15:17:32;;;;;;;4.60;4.00;;;19.00;99.90;;;;;;4955788;28;20459;-62
2021/07/01 15:19:57;;;;;;;3.70;3.33;;;19.10;99.90;;;;;;4956212;29;20437;-62
2021/07/01 15:22:23;;;;;;;3.93;3.60;;;19.40;99.90;;;;;;4955386;29;20898;-62
2021/07/01 15:24:53;;;;;;;4.47;3.93;;;19.50;99.90;;;;;;4955198;28;20244;-62
2021/07/01 15:27:23;;;;;;;5.07;4.23;;;19.50;99.90;;;;;;4955433;28;20221;-62
2021/07/01 15:29:50;;;;;;;8.23;4.13;;;19.30;99.90;;;;;;4955037;29;20472;-62
2021/07/01 15:32:16;;;;;;;4.33;3.90;;;19.20;99.90;;;;;;4955117;29;20445;-62
2021/07/01 15:34:42;;;;;;;5.13;4.10;;;19.10;99.90;;;;;;4954931;29;20521;-62
2021/07/01 15:37:08;;;;;;;4.60;4.03;;;19.00;99.90;;;;;;4955348;28;20194;-62
2021/07/01 15:39:34;;;;;;;4.17;3.77;;;18.90;99.90;;;;;;4953833;29;20497;-61
2021/07/01 15:41:59;;;;;;;5.90;3.73;;;18.90;99.90;;;;;;4936064;29;20840;-60
2021/07/01 15:44:26;;;;;;;4.20;3.80;;;19.00;99.90;;;;;;4951538;29;20178;-62
2021/07/01 15:46:52;;;;;;;5.33;3.70;;;18.90;99.90;;;;;;4955499;28;20693;-62
2021/07/01 15:49:19;;;;;;;3.97;3.60;;;19.00;99.90;;;;;;4955369;29;20469;-62
2021/07/01 15:51:46;;;;;;;6.37;4.03;;;19.20;99.90;;;;;;4954997;29;20917;-62
2021/07/01 15:54:11;;;;;;;7.50;4.73;;;19.30;99.90;;;;;;4954694;29;20445;-62
2021/07/01 15:56:50;;;;;;;5.50;4.10;;;19.40;99.90;;;;;;4954917;28;20433;-62
2021/07/01 15:59:24;;;;;;;4.73;4.10;;;19.50;99.90;;;;;;4954321;29;20532;-62
2021/07/01 16:01:58;;;;;;;6.17;4.13;;;19.20;99.90;;;;;;4955369;29;20875;-62
2021/07/01 16:04:26;;;;;;;4.50;3.83;;;19.20;99.90;;;;;;4954915;29;20442;-61
2021/07/01 16:06:52;;;;;;;4.57;3.67;;;19.10;99.90;;;;;;4954809;28;20544;-61
2021/07/01 16:09:19;;;;;;;3.67;3.10;;;19.10;99.90;;;;;;4953098;29;20421;-62
2021/07/01 16:11:46;;;;;;;4.20;3.80;;;19.00;99.90;;;;;;4955020;29;20933;-62
2021/07/01 16:14:13;;;;;;;4.40;4.00;;;18.70;99.90;;;;;;4954883;29;20441;-62
2021/07/01 16:16:39;;;;;;;4.17;3.60;;;18.60;99.90;;;;;;4954683;28;20425;-62
2021/07/01 16:19:06;;;;;;;4.60;3.53;;;18.60;99.90;;;;;;4954916;29;20413;-62
2021/07/01 16:21:34;;;;;;;4.30;4.00;;;18.70;99.90;;;;;;4953569;29;20510;-62
2021/07/01 16:24:00;;;;;;;5.53;4.23;;;18.60;99.90;;;;;;4954387;28;20441;-62
2021/07/01 16:26:27;;;;;;;3.97;3.57;;;18.60;99.90;;;;;;4954883;28;20433;-62
2021/07/01 16:28:55;;;;;;;4.97;3.80;;;18.80;99.90;;;;;;4954532;29;20452;-62
2021/07/01 16:31:22;;;;;;;4.10;3.73;;;18.90;99.90;;;;;;4954735;29;20982;-62
2021/07/01 16:33:48;;;;;;;4.13;3.40;;;18.90;99.90;;;;;;4954925;29;20414;-62
2021/07/01 16:36:13;;;;;;;4.70;3.90;;;18.80;99.90;;;;;;4955287;28;20429;-62
2021/07/01 16:38:40;;;;;;;5.10;4.60;;;18.80;99.90;;;;;;4957692;29;20441;-62
2021/07/01 16:41:07;;;;;;;4.90;4.40;;;19.00;99.90;;;;;;4958491;29;20493;-62
2021/07/01 16:43:33;;;;;;;3.90;3.60;;;18.90;99.90;;;;;;4958774;29;20488;-62
2021/07/01 16:46:02;;;;;;;5.80;3.90;;;19.00;99.90;;;;;;4958150;28;20475;-62
2021/07/01 16:48:33;;;;;;;5.43;4.20;;;19.10;99.90;;;;;;4958063;29;20405;-62